sensor_id;sensor_type;location;lat;lon;timestamp;temperature;humidity
24226;DHT22;51462;51.422;5.514;2023-02-26T00:00:28;2.10;99.90
24226;DHT22;51462;51.422;5.514;2023-02-26T00:02:54;1.90;99.90
24226;DHT22;51462;51.422;5.514;2023-02-26T00:05:20;2.00;99.90
24226;DHT22;51462;51.422;5.514;2023-02-26T00:07:46;2.50;99.90
24226;DHT22;51462;51.422;5.514;2023-02-26T00:10:12;2.40;99.90
24226;DHT22;51462;51.422;5.514;2023-02-26T00:12:39;2.20;99.90
24226;DHT22;51462;51.422;5.514;2023-02-26T00:15:05;2.00;99.90
24226;DHT22;51462;51.422;5.514;2023-02-26T00:18:06;2.20;99.90
24226;DHT22;51462;51.422;5.514;2023-02-26T00:20:31;2.20;99.90
24226;DHT22;51462;51.422;5.514;2023-02-26T00:22:57;2.50;99.90
24226;DHT22;51462;51.422;5.514;2023-02-26T00:25:22;2.20;99.90
24226;DHT22;51462;51.422;5.514;2023-02-26T00:27:48;2.50;99.90
24226;DHT22;51462;51.422;5.514;2023-02-26T00:30:14;2.20;99.90
24226;DHT22;51462;51.422;5.514;2023-02-26T00:32:40;2.30;99.90
24226;DHT22;51462;51.422;5.514;2023-02-26T00:35:08;2.60;99.90
24226;DHT22;51462;51.422;5.514;2023-02-26T00:42:59;2.70;99.90
24226;DHT22;51462;51.422;5.514;2023-02-26T00:45:26;2.40;99.90
24226;DHT22;51462;51.422;5.514;2023-02-26T00:48:28;2.40;99.90
24226;DHT22;51462;51.422;5.514;2023-02-26T00:51:01;2.40;99.90
24226;DHT22;51462;51.422;5.514;2023-02-26T00:56:40;2.30;99.90
24226;DHT22;51462;51.422;5.514;2023-02-26T00:59:06;2.40;99.90
24226;DHT22;51462;51.422;5.514;2023-02-26T01:01:31;2.60;99.90
24226;DHT22;51462;51.422;5.514;2023-02-26T01:03:57;2.50;99.90
24226;DHT22;51462;51.422;5.514;2023-02-26T01:06:29;2.40;99.90
24226;DHT22;51462;51.422;5.514;2023-02-26T01:09:25;2.40;99.90
24226;DHT22;51462;51.422;5.514;2023-02-26T01:11:55;2.40;99.90
24226;DHT22;51462;51.422;5.514;2023-02-26T01:14:22;2.30;99.90
24226;DHT22;51462;51.422;5.514;2023-02-26T01:17:14;2.00;99.90
24226;DHT22;51462;51.422;5.514;2023-02-26T01:19:52;2.50;99.90
24226;DHT22;51462;51.422;5.514;2023-02-26T01:22:27;2.50;99.90
24226;DHT22;51462;51.422;5.514;2023-02-26T01:25:09;2.70;99.90
24226;DHT22;51462;51.422;5.514;2023-02-26T01:27:35;3.10;99.90
24226;DHT22;51462;51.422;5.514;2023-02-26T01:30:03;2.90;99.90
24226;DHT22;51462;51.422;5.514;2023-02-26T01:32:48;2.60;99.90
24226;DHT22;51462;51.422;5.514;2023-02-26T01:41:13;2.60;99.90
24226;DHT22;51462;51.422;5.514;2023-02-26T01:49:17;2.80;99.90
24226;DHT22;51462;51.422;5.514;2023-02-26T01:51:51;2.40;99.90
24226;DHT22;51462;51.422;5.514;2023-02-26T01:54:19;3.00;99.90
24226;DHT22;51462;51.422;5.514;2023-02-26T01:56:54;3.30;99.90
24226;DHT22;51462;51.422;5.514;2023-02-26T01:59:20;3.30;99.90
24226;DHT22;51462;51.422;5.514;2023-02-26T02:01:50;2.80;99.90
24226;DHT22;51462;51.422;5.514;2023-02-26T02:04:16;2.70;99.90
24226;DHT22;51462;51.422;5.514;2023-02-26T02:06:42;2.50;99.90
24226;DHT22;51462;51.422;5.514;2023-02-26T02:09:09;2.00;99.90
24226;DHT22;51462;51.422;5.514;2023-02-26T02:11:48;2.10;99.90
24226;DHT22;51462;51.422;5.514;2023-02-26T02:14:23;2.70;99.90
24226;DHT22;51462;51.422;5.514;2023-02-26T02:17:14;2.70;99.90
24226;DHT22;51462;51.422;5.514;2023-02-26T02:19:58;3.00;99.90
24226;DHT22;51462;51.422;5.514;2023-02-26T02:22:53;2.50;99.90
24226;DHT22;51462;51.422;5.514;2023-02-26T02:28:42;2.80;99.90
24226;DHT22;51462;51.422;5.514;2023-02-26T02:34:02;2.60;99.90
24226;DHT22;51462;51.422;5.514;2023-02-26T02:36:52;2.40;99.90
24226;DHT22;51462;51.422;5.514;2023-02-26T02:39:23;2.30;99.90
24226;DHT22;51462;51.422;5.514;2023-02-26T02:41:55;2.60;99.90
24226;DHT22;51462;51.422;5.514;2023-02-26T02:44:24;2.50;99.90
24226;DHT22;51462;51.422;5.514;2023-02-26T02:46:53;2.20;99.90
24226;DHT22;51462;51.422;5.514;2023-02-26T02:52:07;1.80;99.90
24226;DHT22;51462;51.422;5.514;2023-02-26T02:54:50;2.00;99.90
24226;DHT22;51462;51.422;5.514;2023-02-26T02:57:27;2.10;99.90
24226;DHT22;51462;51.422;5.514;2023-02-26T02:59:58;2.20;99.90
24226;DHT22;51462;51.422;5.514;2023-02-26T03:02:42;1.90;99.90
24226;DHT22;51462;51.422;5.514;2023-02-26T03:05:11;1.60;99.90
24226;DHT22;51462;51.422;5.514;2023-02-26T03:07:44;1.80;99.90
24226;DHT22;51462;51.422;5.514;2023-02-26T03:10:11;2.00;99.90
24226;DHT22;51462;51.422;5.514;2023-02-26T03:12:37;1.90;99.90
24226;DHT22;51462;51.422;5.514;2023-02-26T03:15:03;2.20;99.90
24226;DHT22;51462;51.422;5.514;2023-02-26T03:17:58;2.00;99.90
24226;DHT22;51462;51.422;5.514;2023-02-26T03:20:34;2.20;99.90
24226;DHT22;51462;51.422;5.514;2023-02-26T03:23:08;1.80;99.90
24226;DHT22;51462;51.422;5.514;2023-02-26T03:28:26;2.10;99.90
24226;DHT22;51462;51.422;5.514;2023-02-26T03:31:09;2.00;99.90
24226;DHT22;51462;51.422;5.514;2023-02-26T03:38:53;1.90;99.90
24226;DHT22;51462;51.422;5.514;2023-02-26T03:41:31;1.90;99.90
24226;DHT22;51462;51.422;5.514;2023-02-26T03:44:04;2.00;99.90
24226;DHT22;51462;51.422;5.514;2023-02-26T03:46:34;1.70;99.90
24226;DHT22;51462;51.422;5.514;2023-02-26T03:49:06;1.90;99.90
24226;DHT22;51462;51.422;5.514;2023-02-26T03:51:34;1.90;99.90
24226;DHT22;51462;51.422;5.514;2023-02-26T03:54:07;1.80;99.90
24226;DHT22;51462;51.422;5.514;2023-02-26T03:56:42;2.00;99.90
24226;DHT22;51462;51.422;5.514;2023-02-26T03:59:09;2.20;99.90
24226;DHT22;51462;51.422;5.514;2023-02-26T04:04:38;2.20;99.90
24226;DHT22;51462;51.422;5.514;2023-02-26T04:07:10;2.30;99.90
24226;DHT22;51462;51.422;5.514;2023-02-26T04:09:43;2.50;99.90
24226;DHT22;51462;51.422;5.514;2023-02-26T04:12:10;2.30;99.90
24226;DHT22;51462;51.422;5.514;2023-02-26T04:14:36;2.00;99.90
24226;DHT22;51462;51.422;5.514;2023-02-26T04:17:01;2.30;99.90
24226;DHT22;51462;51.422;5.514;2023-02-26T04:19:27;2.30;99.90
24226;DHT22;51462;51.422;5.514;2023-02-26T04:21:53;1.80;99.90
24226;DHT22;51462;51.422;5.514;2023-02-26T04:24:18;2.10;99.90
24226;DHT22;51462;51.422;5.514;2023-02-26T04:26:44;1.80;99.90
24226;DHT22;51462;51.422;5.514;2023-02-26T04:29:09;2.00;99.90
24226;DHT22;51462;51.422;5.514;2023-02-26T04:31:35;1.90;99.90
24226;DHT22;51462;51.422;5.514;2023-02-26T04:34:01;1.80;99.90
24226;DHT22;51462;51.422;5.514;2023-02-26T04:36:26;1.60;99.90
24226;DHT22;51462;51.422;5.514;2023-02-26T04:38:52;1.70;99.90
24226;DHT22;51462;51.422;5.514;2023-02-26T04:41:18;1.90;99.90
24226;DHT22;51462;51.422;5.514;2023-02-26T04:43:43;1.60;99.90
24226;DHT22;51462;51.422;5.514;2023-02-26T04:46:09;1.50;99.90
24226;DHT22;51462;51.422;5.514;2023-02-26T04:48:34;1.50;99.90
24226;DHT22;51462;51.422;5.514;2023-02-26T04:51:00;1.30;99.90
24226;DHT22;51462;51.422;5.514;2023-02-26T04:53:25;1.20;99.90
24226;DHT22;51462;51.422;5.514;2023-02-26T04:55:51;1.30;99.90
24226;DHT22;51462;51.422;5.514;2023-02-26T04:58:16;1.50;99.90
24226;DHT22;51462;51.422;5.514;2023-02-26T05:00:42;1.60;99.90
24226;DHT22;51462;51.422;5.514;2023-02-26T05:03:08;1.40;99.90
24226;DHT22;51462;51.422;5.514;2023-02-26T05:05:34;1.30;99.90
24226;DHT22;51462;51.422;5.514;2023-02-26T05:08:00;1.20;99.90
24226;DHT22;51462;51.422;5.514;2023-02-26T05:10:26;1.00;99.90
24226;DHT22;51462;51.422;5.514;2023-02-26T05:12:52;1.00;99.90
24226;DHT22;51462;51.422;5.514;2023-02-26T05:15:17;1.60;99.90
24226;DHT22;51462;51.422;5.514;2023-02-26T05:17:43;1.50;99.90
24226;DHT22;51462;51.422;5.514;2023-02-26T05:20:09;1.60;99.90
24226;DHT22;51462;51.422;5.514;2023-02-26T05:22:36;1.50;99.90
24226;DHT22;51462;51.422;5.514;2023-02-26T05:25:02;1.70;99.90
24226;DHT22;51462;51.422;5.514;2023-02-26T05:27:29;1.90;99.90
24226;DHT22;51462;51.422;5.514;2023-02-26T05:29:55;2.30;99.90
24226;DHT22;51462;51.422;5.514;2023-02-26T05:32:20;2.00;99.90
24226;DHT22;51462;51.422;5.514;2023-02-26T05:34:46;1.30;99.90
24226;DHT22;51462;51.422;5.514;2023-02-26T05:37:11;1.40;99.90
24226;DHT22;51462;51.422;5.514;2023-02-26T05:39:37;1.50;99.90
24226;DHT22;51462;51.422;5.514;2023-02-26T05:42:03;1.60;99.90
24226;DHT22;51462;51.422;5.514;2023-02-26T05:44:28;1.60;99.90
24226;DHT22;51462;51.422;5.514;2023-02-26T05:46:54;1.70;99.90
24226;DHT22;51462;51.422;5.514;2023-02-26T05:49:19;1.90;99.90
24226;DHT22;51462;51.422;5.514;2023-02-26T05:51:45;1.50;99.90
24226;DHT22;51462;51.422;5.514;2023-02-26T05:54:11;1.40;99.90
24226;DHT22;51462;51.422;5.514;2023-02-26T05:56:36;1.50;99.90
24226;DHT22;51462;51.422;5.514;2023-02-26T05:59:02;1.30;99.90
24226;DHT22;51462;51.422;5.514;2023-02-26T06:01:28;1.20;99.90
24226;DHT22;51462;51.422;5.514;2023-02-26T06:03:53;1.30;99.90
24226;DHT22;51462;51.422;5.514;2023-02-26T06:06:19;1.50;99.90
24226;DHT22;51462;51.422;5.514;2023-02-26T06:08:46;1.30;99.90
24226;DHT22;51462;51.422;5.514;2023-02-26T06:11:12;1.20;99.90
24226;DHT22;51462;51.422;5.514;2023-02-26T06:13:38;1.50;99.90
24226;DHT22;51462;51.422;5.514;2023-02-26T06:16:04;1.10;99.90
24226;DHT22;51462;51.422;5.514;2023-02-26T06:18:29;1.20;99.90
24226;DHT22;51462;51.422;5.514;2023-02-26T06:20:56;1.60;99.90
24226;DHT22;51462;51.422;5.514;2023-02-26T06:23:22;1.30;99.90
24226;DHT22;51462;51.422;5.514;2023-02-26T06:25:50;1.60;99.90
24226;DHT22;51462;51.422;5.514;2023-02-26T06:28:16;1.90;99.90
24226;DHT22;51462;51.422;5.514;2023-02-26T06:30:41;1.30;99.90
24226;DHT22;51462;51.422;5.514;2023-02-26T06:33:07;1.30;99.90
24226;DHT22;51462;51.422;5.514;2023-02-26T06:35:32;1.40;99.90
24226;DHT22;51462;51.422;5.514;2023-02-26T06:37:58;1.60;99.90
24226;DHT22;51462;51.422;5.514;2023-02-26T06:40:24;1.20;99.90
24226;DHT22;51462;51.422;5.514;2023-02-26T06:42:49;1.30;99.90
24226;DHT22;51462;51.422;5.514;2023-02-26T06:45:15;1.70;99.90
24226;DHT22;51462;51.422;5.514;2023-02-26T06:47:41;1.50;99.90
24226;DHT22;51462;51.422;5.514;2023-02-26T06:50:07;1.10;99.90
24226;DHT22;51462;51.422;5.514;2023-02-26T06:52:33;1.60;99.90
24226;DHT22;51462;51.422;5.514;2023-02-26T06:54:58;2.10;99.90
24226;DHT22;51462;51.422;5.514;2023-02-26T06:57:24;1.90;99.90
24226;DHT22;51462;51.422;5.514;2023-02-26T06:59:49;2.20;99.90
24226;DHT22;51462;51.422;5.514;2023-02-26T07:02:18;2.10;99.90
24226;DHT22;51462;51.422;5.514;2023-02-26T07:04:44;2.10;99.90
24226;DHT22;51462;51.422;5.514;2023-02-26T07:07:10;2.10;99.90
24226;DHT22;51462;51.422;5.514;2023-02-26T07:09:36;2.60;99.90
24226;DHT22;51462;51.422;5.514;2023-02-26T07:12:02;2.40;99.90
24226;DHT22;51462;51.422;5.514;2023-02-26T07:14:28;2.40;99.90
24226;DHT22;51462;51.422;5.514;2023-02-26T07:16:53;2.50;99.90
24226;DHT22;51462;51.422;5.514;2023-02-26T07:19:19;2.50;99.90
24226;DHT22;51462;51.422;5.514;2023-02-26T07:21:44;2.30;99.90
24226;DHT22;51462;51.422;5.514;2023-02-26T07:24:10;2.40;99.90
24226;DHT22;51462;51.422;5.514;2023-02-26T07:26:35;2.20;99.90
24226;DHT22;51462;51.422;5.514;2023-02-26T07:29:01;2.10;99.90
24226;DHT22;51462;51.422;5.514;2023-02-26T07:31:26;2.60;99.90
24226;DHT22;51462;51.422;5.514;2023-02-26T07:33:52;2.40;99.90
24226;DHT22;51462;51.422;5.514;2023-02-26T07:36:18;2.50;99.90
24226;DHT22;51462;51.422;5.514;2023-02-26T07:38:43;2.10;99.90
24226;DHT22;51462;51.422;5.514;2023-02-26T07:41:09;2.50;99.90
24226;DHT22;51462;51.422;5.514;2023-02-26T07:43:34;2.40;99.90
24226;DHT22;51462;51.422;5.514;2023-02-26T07:46:00;2.70;99.90
24226;DHT22;51462;51.422;5.514;2023-02-26T07:48:25;2.90;99.90
24226;DHT22;51462;51.422;5.514;2023-02-26T07:50:52;3.30;99.90
24226;DHT22;51462;51.422;5.514;2023-02-26T07:53:18;3.10;99.90
24226;DHT22;51462;51.422;5.514;2023-02-26T07:55:43;2.80;99.90
24226;DHT22;51462;51.422;5.514;2023-02-26T07:58:09;2.40;99.90
24226;DHT22;51462;51.422;5.514;2023-02-26T08:00:35;2.90;99.90
24226;DHT22;51462;51.422;5.514;2023-02-26T08:03:00;2.60;99.90
24226;DHT22;51462;51.422;5.514;2023-02-26T08:05:26;2.70;99.90
24226;DHT22;51462;51.422;5.514;2023-02-26T08:07:51;3.20;99.90
24226;DHT22;51462;51.422;5.514;2023-02-26T08:10:17;3.10;99.90
24226;DHT22;51462;51.422;5.514;2023-02-26T08:12:42;3.20;99.90
24226;DHT22;51462;51.422;5.514;2023-02-26T08:15:08;3.10;99.90
24226;DHT22;51462;51.422;5.514;2023-02-26T08:17:36;3.30;99.90
24226;DHT22;51462;51.422;5.514;2023-02-26T08:20:01;3.60;99.90
24226;DHT22;51462;51.422;5.514;2023-02-26T08:22:29;3.50;99.90
24226;DHT22;51462;51.422;5.514;2023-02-26T08:24:54;3.50;99.90
24226;DHT22;51462;51.422;5.514;2023-02-26T08:27:20;3.40;99.90
24226;DHT22;51462;51.422;5.514;2023-02-26T08:29:46;3.60;99.90
24226;DHT22;51462;51.422;5.514;2023-02-26T08:32:15;3.70;99.90
24226;DHT22;51462;51.422;5.514;2023-02-26T08:34:42;3.60;99.90
24226;DHT22;51462;51.422;5.514;2023-02-26T08:37:08;3.50;99.90
24226;DHT22;51462;51.422;5.514;2023-02-26T08:39:36;3.80;99.90
24226;DHT22;51462;51.422;5.514;2023-02-26T08:42:04;4.40;99.90
24226;DHT22;51462;51.422;5.514;2023-02-26T08:44:31;3.90;99.90
24226;DHT22;51462;51.422;5.514;2023-02-26T08:46:57;3.90;99.90
24226;DHT22;51462;51.422;5.514;2023-02-26T08:49:22;4.00;99.90
24226;DHT22;51462;51.422;5.514;2023-02-26T08:51:48;3.40;99.90
24226;DHT22;51462;51.422;5.514;2023-02-26T08:54:14;3.80;99.90
24226;DHT22;51462;51.422;5.514;2023-02-26T08:56:39;4.20;99.90
24226;DHT22;51462;51.422;5.514;2023-02-26T08:59:05;4.30;99.90
24226;DHT22;51462;51.422;5.514;2023-02-26T09:01:31;4.50;99.90
24226;DHT22;51462;51.422;5.514;2023-02-26T09:03:56;4.60;99.90
24226;DHT22;51462;51.422;5.514;2023-02-26T09:06:22;4.40;99.90
24226;DHT22;51462;51.422;5.514;2023-02-26T09:08:47;4.20;99.90
24226;DHT22;51462;51.422;5.514;2023-02-26T09:11:14;4.40;99.90
24226;DHT22;51462;51.422;5.514;2023-02-26T09:13:39;4.30;99.90
24226;DHT22;51462;51.422;5.514;2023-02-26T09:16:05;4.00;99.90
24226;DHT22;51462;51.422;5.514;2023-02-26T09:18:31;4.50;99.90
24226;DHT22;51462;51.422;5.514;2023-02-26T09:20:57;4.70;99.90
24226;DHT22;51462;51.422;5.514;2023-02-26T09:23:23;4.50;99.90
24226;DHT22;51462;51.422;5.514;2023-02-26T09:25:53;4.70;99.90
24226;DHT22;51462;51.422;5.514;2023-02-26T09:28:19;4.50;99.90
24226;DHT22;51462;51.422;5.514;2023-02-26T09:30:45;4.80;99.90
24226;DHT22;51462;51.422;5.514;2023-02-26T09:33:10;4.90;99.90
24226;DHT22;51462;51.422;5.514;2023-02-26T09:35:36;4.90;99.90
24226;DHT22;51462;51.422;5.514;2023-02-26T09:38:02;5.10;99.90
24226;DHT22;51462;51.422;5.514;2023-02-26T09:40:44;4.90;99.90
24226;DHT22;51462;51.422;5.514;2023-02-26T09:48:47;4.90;99.90
24226;DHT22;51462;51.422;5.514;2023-02-26T09:51:20;4.80;99.90
24226;DHT22;51462;51.422;5.514;2023-02-26T09:53:48;4.80;99.90
24226;DHT22;51462;51.422;5.514;2023-02-26T09:56:20;4.90;99.90
24226;DHT22;51462;51.422;5.514;2023-02-26T09:58:46;5.10;99.90
24226;DHT22;51462;51.422;5.514;2023-02-26T10:01:20;5.20;99.90
24226;DHT22;51462;51.422;5.514;2023-02-26T10:04:24;5.00;99.90
24226;DHT22;51462;51.422;5.514;2023-02-26T10:12:11;4.80;99.90
24226;DHT22;51462;51.422;5.514;2023-02-26T10:29:04;5.20;99.90
24226;DHT22;51462;51.422;5.514;2023-02-26T10:34:26;5.20;99.90
24226;DHT22;51462;51.422;5.514;2023-02-26T10:50:53;5.30;99.90
24226;DHT22;51462;51.422;5.514;2023-02-26T10:53:21;5.10;99.90
24226;DHT22;51462;51.422;5.514;2023-02-26T10:55:58;5.50;99.90
24226;DHT22;51462;51.422;5.514;2023-02-26T10:58:26;5.50;99.90
24226;DHT22;51462;51.422;5.514;2023-02-26T11:00:53;5.60;99.90
24226;DHT22;51462;51.422;5.514;2023-02-26T11:03:31;5.40;99.90
24226;DHT22;51462;51.422;5.514;2023-02-26T11:05:57;5.40;99.90
24226;DHT22;51462;51.422;5.514;2023-02-26T11:08:49;5.40;99.90
24226;DHT22;51462;51.422;5.514;2023-02-26T11:11:34;5.50;99.90
24226;DHT22;51462;51.422;5.514;2023-02-26T11:14:00;5.40;99.90
24226;DHT22;51462;51.422;5.514;2023-02-26T11:16:26;5.50;99.90
24226;DHT22;51462;51.422;5.514;2023-02-26T11:18:54;5.50;99.90
24226;DHT22;51462;51.422;5.514;2023-02-26T11:21:30;5.30;99.90
24226;DHT22;51462;51.422;5.514;2023-02-26T11:24:06;5.70;99.90
24226;DHT22;51462;51.422;5.514;2023-02-26T11:26:34;5.90;99.90
24226;DHT22;51462;51.422;5.514;2023-02-26T11:29:00;6.00;99.90
24226;DHT22;51462;51.422;5.514;2023-02-26T11:31:27;6.10;99.90
24226;DHT22;51462;51.422;5.514;2023-02-26T11:33:59;6.20;99.90
24226;DHT22;51462;51.422;5.514;2023-02-26T11:36:28;6.40;99.90
24226;DHT22;51462;51.422;5.514;2023-02-26T11:38:57;6.40;99.90
24226;DHT22;51462;51.422;5.514;2023-02-26T11:41:27;6.60;99.90
24226;DHT22;51462;51.422;5.514;2023-02-26T11:44:05;6.70;99.90
24226;DHT22;51462;51.422;5.514;2023-02-26T11:46:38;6.80;99.90
24226;DHT22;51462;51.422;5.514;2023-02-26T11:49:04;6.80;99.90
24226;DHT22;51462;51.422;5.514;2023-02-26T11:51:30;7.00;99.90
24226;DHT22;51462;51.422;5.514;2023-02-26T11:53:58;7.00;99.90
24226;DHT22;51462;51.422;5.514;2023-02-26T11:58:59;7.20;99.90
24226;DHT22;51462;51.422;5.514;2023-02-26T12:01:28;7.30;99.90
24226;DHT22;51462;51.422;5.514;2023-02-26T12:03:58;7.40;99.90
24226;DHT22;51462;51.422;5.514;2023-02-26T12:06:25;7.40;99.90
24226;DHT22;51462;51.422;5.514;2023-02-26T12:08:51;7.50;99.90
24226;DHT22;51462;51.422;5.514;2023-02-26T12:24:38;8.30;99.90
24226;DHT22;51462;51.422;5.514;2023-02-26T12:29:54;8.40;99.90
24226;DHT22;51462;51.422;5.514;2023-02-26T12:36:17;8.50;99.90
24226;DHT22;51462;51.422;5.514;2023-02-26T12:42:38;8.60;99.90
24226;DHT22;51462;51.422;5.514;2023-02-26T12:47:45;8.60;99.90
24226;DHT22;51462;51.422;5.514;2023-02-26T12:55:54;8.80;99.90
24226;DHT22;51462;51.422;5.514;2023-02-26T12:58:46;8.80;99.90
24226;DHT22;51462;51.422;5.514;2023-02-26T13:01:42;8.80;99.90
24226;DHT22;51462;51.422;5.514;2023-02-26T13:04:43;9.20;99.90
24226;DHT22;51462;51.422;5.514;2023-02-26T13:11:08;9.40;99.90
24226;DHT22;51462;51.422;5.514;2023-02-26T13:16:21;9.50;99.90
24226;DHT22;51462;51.422;5.514;2023-02-26T13:18:59;9.90;99.90
24226;DHT22;51462;51.422;5.514;2023-02-26T13:21:44;9.70;99.90
24226;DHT22;51462;51.422;5.514;2023-02-26T13:24:23;9.70;99.90
24226;DHT22;51462;51.422;5.514;2023-02-26T13:26:52;9.90;99.90
24226;DHT22;51462;51.422;5.514;2023-02-26T13:29:26;10.10;99.90
24226;DHT22;51462;51.422;5.514;2023-02-26T13:31:59;10.00;99.90
24226;DHT22;51462;51.422;5.514;2023-02-26T13:37:01;9.90;99.90
24226;DHT22;51462;51.422;5.514;2023-02-26T13:39:51;10.00;99.90
24226;DHT22;51462;51.422;5.514;2023-02-26T13:42:40;9.90;99.90
24226;DHT22;51462;51.422;5.514;2023-02-26T13:45:30;10.10;99.90
24226;DHT22;51462;51.422;5.514;2023-02-26T13:53:50;10.10;99.90
24226;DHT22;51462;51.422;5.514;2023-02-26T14:10:13;9.60;99.90
24226;DHT22;51462;51.422;5.514;2023-02-26T14:12:37;9.80;99.90
24226;DHT22;51462;51.422;5.514;2023-02-26T14:17:39;10.10;99.90
24226;DHT22;51462;51.422;5.514;2023-02-26T14:20:26;9.30;99.90
24226;DHT22;51462;51.422;5.514;2023-02-26T14:25:29;8.10;99.90
24226;DHT22;51462;51.422;5.514;2023-02-26T14:33:30;7.90;99.90
24226;DHT22;51462;51.422;5.514;2023-02-26T14:35:56;8.40;99.90
24226;DHT22;51462;51.422;5.514;2023-02-26T14:38:32;8.60;99.90
24226;DHT22;51462;51.422;5.514;2023-02-26T14:46:04;9.40;99.90
24226;DHT22;51462;51.422;5.514;2023-02-26T14:48:32;9.20;99.90
24226;DHT22;51462;51.422;5.514;2023-02-26T15:05:14;10.50;99.90
24226;DHT22;51462;51.422;5.514;2023-02-26T15:08:06;11.50;99.90
24226;DHT22;51462;51.422;5.514;2023-02-26T15:21:24;12.60;99.90
24226;DHT22;51462;51.422;5.514;2023-02-26T15:23:54;12.60;99.90
24226;DHT22;51462;51.422;5.514;2023-02-26T15:26:27;12.90;99.90
24226;DHT22;51462;51.422;5.514;2023-02-26T15:28:54;12.80;99.90
24226;DHT22;51462;51.422;5.514;2023-02-26T15:31:34;12.90;99.90
24226;DHT22;51462;51.422;5.514;2023-02-26T15:34:01;13.10;99.90
24226;DHT22;51462;51.422;5.514;2023-02-26T15:36:29;12.40;99.90
24226;DHT22;51462;51.422;5.514;2023-02-26T15:38:58;10.80;99.90
24226;DHT22;51462;51.422;5.514;2023-02-26T15:41:24;10.00;99.90
24226;DHT22;51462;51.422;5.514;2023-02-26T15:44:34;9.70;99.90
24226;DHT22;51462;51.422;5.514;2023-02-26T15:46:46;9.50;99.90
24226;DHT22;51462;51.422;5.514;2023-02-26T15:49:37;9.50;99.90
24226;DHT22;51462;51.422;5.514;2023-02-26T15:52:05;9.50;99.90
24226;DHT22;51462;51.422;5.514;2023-02-26T15:55:01;9.40;99.90
24226;DHT22;51462;51.422;5.514;2023-02-26T15:57:25;9.40;99.90
24226;DHT22;51462;51.422;5.514;2023-02-26T15:59:59;9.10;99.90
24226;DHT22;51462;51.422;5.514;2023-02-26T16:02:30;9.10;99.90
24226;DHT22;51462;51.422;5.514;2023-02-26T16:04:56;8.90;99.90
24226;DHT22;51462;51.422;5.514;2023-02-26T16:07:22;9.00;99.90
24226;DHT22;51462;51.422;5.514;2023-02-26T16:09:50;9.00;99.90
24226;DHT22;51462;51.422;5.514;2023-02-26T16:12:33;9.10;99.90
24226;DHT22;51462;51.422;5.514;2023-02-26T16:15:05;9.00;99.90
24226;DHT22;51462;51.422;5.514;2023-02-26T16:17:34;9.00;99.90
24226;DHT22;51462;51.422;5.514;2023-02-26T16:20:10;9.00;99.90
24226;DHT22;51462;51.422;5.514;2023-02-26T16:22:40;8.90;99.90
24226;DHT22;51462;51.422;5.514;2023-02-26T16:25:34;8.60;99.90
24226;DHT22;51462;51.422;5.514;2023-02-26T16:28:22;8.80;99.90
24226;DHT22;51462;51.422;5.514;2023-02-26T16:30:53;8.90;99.90
24226;DHT22;51462;51.422;5.514;2023-02-26T16:33:22;8.70;99.90
24226;DHT22;51462;51.422;5.514;2023-02-26T16:35:56;8.80;99.90
24226;DHT22;51462;51.422;5.514;2023-02-26T16:38:31;8.60;99.90
24226;DHT22;51462;51.422;5.514;2023-02-26T16:41:05;8.40;99.90
24226;DHT22;51462;51.422;5.514;2023-02-26T16:46:18;8.40;99.90
24226;DHT22;51462;51.422;5.514;2023-02-26T16:48:53;8.50;99.90
24226;DHT22;51462;51.422;5.514;2023-02-26T16:51:25;8.50;99.90
24226;DHT22;51462;51.422;5.514;2023-02-26T16:54:01;8.50;99.90
24226;DHT22;51462;51.422;5.514;2023-02-26T16:56:32;8.10;99.90
24226;DHT22;51462;51.422;5.514;2023-02-26T16:59:18;8.10;99.90
24226;DHT22;51462;51.422;5.514;2023-02-26T17:01:52;8.20;99.90
24226;DHT22;51462;51.422;5.514;2023-02-26T17:04:38;7.90;99.90
24226;DHT22;51462;51.422;5.514;2023-02-26T17:07:14;8.20;99.90
24226;DHT22;51462;51.422;5.514;2023-02-26T17:09:46;8.00;99.90
24226;DHT22;51462;51.422;5.514;2023-02-26T17:12:15;7.80;99.90
24226;DHT22;51462;51.422;5.514;2023-02-26T17:14:45;7.70;99.90
24226;DHT22;51462;51.422;5.514;2023-02-26T17:17:12;7.20;99.90
24226;DHT22;51462;51.422;5.514;2023-02-26T17:19:38;7.50;99.90
24226;DHT22;51462;51.422;5.514;2023-02-26T17:22:04;7.20;99.90
24226;DHT22;51462;51.422;5.514;2023-02-26T17:24:37;7.50;99.90
24226;DHT22;51462;51.422;5.514;2023-02-26T17:27:06;7.40;99.90
24226;DHT22;51462;51.422;5.514;2023-02-26T17:29:37;7.20;99.90
24226;DHT22;51462;51.422;5.514;2023-02-26T17:32:04;7.10;99.90
24226;DHT22;51462;51.422;5.514;2023-02-26T17:34:30;7.00;99.90
24226;DHT22;51462;51.422;5.514;2023-02-26T17:36:56;6.90;99.90
24226;DHT22;51462;51.422;5.514;2023-02-26T17:39:22;7.00;99.90
24226;DHT22;51462;51.422;5.514;2023-02-26T17:41:48;6.50;99.90
24226;DHT22;51462;51.422;5.514;2023-02-26T17:44:14;6.70;99.90
24226;DHT22;51462;51.422;5.514;2023-02-26T17:46:39;6.60;99.90
24226;DHT22;51462;51.422;5.514;2023-02-26T17:49:05;6.40;99.90
24226;DHT22;51462;51.422;5.514;2023-02-26T17:51:31;6.30;99.90
24226;DHT22;51462;51.422;5.514;2023-02-26T17:53:56;6.30;99.90
24226;DHT22;51462;51.422;5.514;2023-02-26T17:56:29;6.10;99.90
24226;DHT22;51462;51.422;5.514;2023-02-26T17:58:56;5.80;99.90
24226;DHT22;51462;51.422;5.514;2023-02-26T18:01:22;5.70;99.90
24226;DHT22;51462;51.422;5.514;2023-02-26T18:03:49;5.50;99.90
24226;DHT22;51462;51.422;5.514;2023-02-26T18:06:15;5.90;99.90
24226;DHT22;51462;51.422;5.514;2023-02-26T18:08:41;5.70;99.90
24226;DHT22;51462;51.422;5.514;2023-02-26T18:11:08;6.00;99.90
24226;DHT22;51462;51.422;5.514;2023-02-26T18:13:36;5.60;99.90
24226;DHT22;51462;51.422;5.514;2023-02-26T18:16:03;5.70;99.90
24226;DHT22;51462;51.422;5.514;2023-02-26T18:18:29;5.70;99.90
24226;DHT22;51462;51.422;5.514;2023-02-26T18:20:56;5.60;99.90
24226;DHT22;51462;51.422;5.514;2023-02-26T18:23:21;5.50;99.90
24226;DHT22;51462;51.422;5.514;2023-02-26T18:25:49;5.50;99.90
24226;DHT22;51462;51.422;5.514;2023-02-26T18:30:43;5.30;99.90
24226;DHT22;51462;51.422;5.514;2023-02-26T18:33:10;5.30;99.90
24226;DHT22;51462;51.422;5.514;2023-02-26T18:35:36;5.10;99.90
24226;DHT22;51462;51.422;5.514;2023-02-26T18:38:03;4.80;99.90
24226;DHT22;51462;51.422;5.514;2023-02-26T18:40:29;4.60;99.90
24226;DHT22;51462;51.422;5.514;2023-02-26T18:42:54;4.50;99.90
24226;DHT22;51462;51.422;5.514;2023-02-26T18:45:21;4.30;99.90
24226;DHT22;51462;51.422;5.514;2023-02-26T18:47:47;4.20;99.90
24226;DHT22;51462;51.422;5.514;2023-02-26T18:50:15;4.20;99.90
24226;DHT22;51462;51.422;5.514;2023-02-26T18:52:41;3.90;99.90
24226;DHT22;51462;51.422;5.514;2023-02-26T18:55:09;3.80;99.90
24226;DHT22;51462;51.422;5.514;2023-02-26T18:57:36;3.80;99.90
24226;DHT22;51462;51.422;5.514;2023-02-26T19:00:05;3.70;99.90
24226;DHT22;51462;51.422;5.514;2023-02-26T19:02:32;3.60;99.90
24226;DHT22;51462;51.422;5.514;2023-02-26T19:04:58;3.60;99.90
24226;DHT22;51462;51.422;5.514;2023-02-26T19:07:24;3.60;99.90
24226;DHT22;51462;51.422;5.514;2023-02-26T19:09:50;3.70;99.90
24226;DHT22;51462;51.422;5.514;2023-02-26T19:12:16;3.60;99.90